Time;durP1;ratioP1;P1;durP2;ratioP2;P2;SDS_P1;SDS_P2;PMS_P1;PMS_P2;Temp;Humidity;BMP_temperature;BMP_pressure;BME280_temperature;BME280_humidity;BME280_pressure;Samples;Min_cycle;Max_cycle;Signal;HPM_P1;HPM_P2
2021/12/30 00:01:49;;;;;;;14.93;8.20;;;;;;;0.62;91.42;97233.13;10418084;28;20029;-57
2021/12/30 00:06:49;;;;;;;18.38;12.05;;;;;;;0.60;91.44;97229.66;10417420;28;20129;-57
2021/12/30 00:11:49;;;;;;;19.15;12.48;;;;;;;0.77;91.30;97231.00;10413982;28;20068;-57
2021/12/30 00:16:48;;;;;;;15.60;8.75;;;;;;;0.93;90.96;97232.31;10415307;28;20071;-57
2021/12/30 00:21:47;;;;;;;16.63;9.52;;;;;;;0.90;90.96;97238.19;10414848;28;20215;-57
2021/12/30 00:26:46;;;;;;;22.48;11.95;;;;;;;0.82;91.31;97244.75;10414201;28;20450;-57
2021/12/30 00:31:45;;;;;;;30.98;17.02;;;;;;;0.68;91.49;97241.78;10413817;28;20041;-57
2021/12/30 00:36:44;;;;;;;32.45;16.35;;;;;;;0.68;91.66;97253.69;10414757;28;20020;-57
2021/12/30 00:41:43;;;;;;;32.70;18.10;;;;;;;0.72;91.39;97263.19;10415430;28;20029;-57
2021/12/30 00:46:42;;;;;;;41.42;23.05;;;;;;;0.66;91.71;97257.91;10416237;28;20112;-57
2021/12/30 00:51:41;;;;;;;35.28;19.70;;;;;;;0.73;91.60;97264.91;10415847;28;20036;-57
2021/12/30 00:56:39;;;;;;;22.58;13.05;;;;;;;0.67;91.75;97270.72;10416610;28;20082;-57
2021/12/30 01:01:38;;;;;;;12.38;6.55;;;;;;;0.44;92.14;97274.25;10416223;28;20127;-57
2021/12/30 01:06:37;;;;;;;14.27;8.23;;;;;;;0.27;92.54;97277.16;10415898;28;20494;-57
2021/12/30 01:11:36;;;;;;;13.65;7.85;;;;;;;0.37;92.11;97280.84;10416140;28;20495;-57
2021/12/30 01:16:41;;;;;;;23.33;13.52;;;;;;;0.39;92.37;97289.44;10415393;28;20580;-57
2021/12/30 01:21:42;;;;;;;14.40;8.50;;;;;;;0.37;92.65;97295.31;10414473;28;20080;-57
2021/12/30 01:26:41;;;;;;;11.98;7.10;;;;;;;0.44;92.41;97303.19;10415941;28;20060;-57
2021/12/30 01:31:40;;;;;;;16.48;9.68;;;;;;;0.45;92.27;97307.50;10415753;28;20057;-57
2021/12/30 01:36:39;;;;;;;14.57;7.63;;;;;;;0.60;92.42;97314.75;10415347;28;20434;-57
2021/12/30 01:41:40;;;;;;;8.93;5.40;;;;;;;0.64;92.10;97314.03;10415269;28;20032;-57
2021/12/30 01:46:41;;;;;;;12.07;6.68;;;;;;;0.60;91.77;97311.34;10413756;28;20087;-57
2021/12/30 01:51:41;;;;;;;8.88;5.53;;;;;;;0.48;92.13;97319.50;10413275;28;20071;-57
2021/12/30 01:56:41;;;;;;;10.20;6.32;;;;;;;0.43;92.17;97316.78;10414372;28;20068;-57
2021/12/30 02:01:40;;;;;;;13.30;9.48;;;;;;;0.53;92.11;97332.41;10413509;28;20064;-57
2021/12/30 02:06:39;;;;;;;9.77;5.47;;;;;;;0.58;91.96;97326.59;10413181;28;20072;-57
2021/12/30 02:11:38;;;;;;;12.18;7.57;;;;;;;0.57;91.87;97340.22;10413510;28;20075;-57
2021/12/30 02:16:37;;;;;;;13.00;6.50;;;;;;;0.61;91.89;97336.03;10412578;28;20025;-57
2021/12/30 02:21:37;;;;;;;11.60;5.72;;;;;;;0.73;91.78;97330.44;10413380;28;20075;-57
2021/12/30 02:26:35;;;;;;;;;;;;;;;0.82;91.80;97341.81;10414413;28;20064;-57
2021/12/30 02:31:34;;;;;;;15.25;9.18;;;;;;;0.89;91.55;97343.72;10414789;28;19920;-57
2021/12/30 02:36:35;;;;;;;12.55;6.97;;;;;;;0.95;91.63;97344.75;10419798;28;20483;-57
2021/12/30 02:41:37;;;;;;;13.05;7.88;;;;;;;1.03;91.53;97341.59;10421858;28;20076;-57
2021/12/30 02:46:39;;;;;;;15.25;8.52;;;;;;;0.96;91.20;97355.00;10421608;28;20076;-57
2021/12/30 02:51:38;;;;;;;14.18;8.23;;;;;;;0.79;91.54;97331.50;10420897;28;20525;-57
2021/12/30 02:56:37;;;;;;;13.30;8.25;;;;;;;0.94;91.36;97348.13;10421108;28;20377;-57
2021/12/30 03:01:36;;;;;;;14.05;8.10;;;;;;;1.06;90.91;97351.03;10420724;28;20133;-57
2021/12/30 03:06:35;;;;;;;14.48;8.45;;;;;;;1.15;90.67;97366.63;10420515;28;20090;-57
2021/12/30 03:11:34;;;;;;;10.48;6.60;;;;;;;1.03;90.78;97376.50;10418714;28;20032;-57
2021/12/30 03:16:36;;;;;;;13.02;8.30;;;;;;;0.95;91.14;97372.84;10420389;28;20064;-57
2021/12/30 03:21:37;;;;;;;10.73;6.47;;;;;;;1.04;90.78;97385.91;10419340;28;20075;-57
2021/12/30 03:26:36;;;;;;;11.25;6.63;;;;;;;0.98;90.36;97390.81;10418442;28;20064;-57
2021/12/30 03:31:35;;;;;;;10.75;6.18;;;;;;;0.94;90.30;97405.19;10419429;28;20504;-57
2021/12/30 03:36:34;;;;;;;15.20;8.52;;;;;;;0.81;90.28;97415.84;10418625;28;20408;-57
2021/12/30 03:41:33;;;;;;;21.98;11.93;;;;;;;0.69;90.54;97413.78;10418344;28;20044;-57
2021/12/30 03:46:33;;;;;;;46.70;25.80;;;;;;;0.53;90.85;97414.09;10418961;28;20072;-57
2021/12/30 03:51:38;;;;;;;26.05;13.73;;;;;;;0.44;90.77;97420.63;10417769;28;20060;-57
2021/12/30 03:56:37;;;;;;;16.05;8.50;;;;;;;0.41;90.92;97429.88;10418427;28;20068;-57
2021/12/30 04:01:36;;;;;;;14.25;6.93;;;;;;;0.44;90.86;97435.94;10417900;28;20080;-57
2021/12/30 04:06:35;;;;;;;18.15;9.85;;;;;;;0.59;91.01;97444.91;10417329;28;20075;-57
2021/12/30 04:11:35;;;;;;;13.55;6.95;;;;;;;0.65;90.77;97453.66;10418360;28;20068;-57
2021/12/30 04:16:34;;;;;;;10.65;6.07;;;;;;;0.63;90.57;97437.41;10416728;28;20105;-57
2021/12/30 04:21:33;;;;;;;9.98;6.53;;;;;;;0.79;90.80;97468.56;10416720;28;20074;-57
2021/12/30 04:26:32;;;;;;;10.05;6.10;;;;;;;0.80;90.67;97494.16;10416934;28;20041;-57
2021/12/30 04:31:31;;;;;;;12.93;6.75;;;;;;;0.81;90.62;97495.88;10417292;28;20067;-57
2021/12/30 04:36:30;;;;;;;;;;;;;;;0.84;90.22;97498.53;10417450;28;20478;-57
2021/12/30 04:41:29;;;;;;;14.75;7.57;;;;;;;0.51;90.39;97469.34;10416667;28;20513;-57
2021/12/30 04:46:28;;;;;;;15.35;7.82;;;;;;;0.63;90.21;97513.16;10412303;28;20119;-57
2021/12/30 04:51:27;;;;;;;15.73;9.02;;;;;;;0.50;90.50;97521.19;10415856;28;20086;-57
2021/12/30 04:56:26;;;;;;;17.10;10.50;;;;;;;0.45;90.97;97537.25;10415731;28;20883;-57
2021/12/30 05:01:25;;;;;;;14.73;8.93;;;;;;;0.47;90.70;97533.06;10415801;28;20048;-56
2021/12/30 05:06:24;;;;;;;14.55;8.85;;;;;;;0.38;91.05;97534.41;10415509;28;20391;-56
2021/12/30 05:11:23;;;;;;;17.73;9.90;;;;;;;0.42;91.12;97543.91;10416133;28;20021;-56
2021/12/30 05:16:23;;;;;;;22.42;14.10;;;;;;;0.56;90.71;97547.81;10415557;28;20373;-56
2021/12/30 05:21:22;;;;;;;30.75;21.98;;;;;;;0.60;90.78;97564.13;10414806;28;20072;-56
2021/12/30 05:26:27;;;;;;;14.82;7.95;;;;;;;0.52;90.59;97571.50;10415741;28;20064;-57
2021/12/30 05:31:26;;;;;;;11.60;6.38;;;;;;;0.58;90.86;97578.50;10414145;28;20083;-56
2021/12/30 05:36:27;;;;;;;10.65;6.85;;;;;;;0.66;90.60;97587.31;10413452;28;20877;-56
2021/12/30 05:41:27;;;;;;;25.65;14.73;;;;;;;0.68;90.55;97586.53;10414734;28;20087;-56
2021/12/30 05:46:27;;;;;;;19.00;12.05;;;;;;;0.68;90.57;97590.78;10413743;28;20090;-56
2021/12/30 05:51:26;;;;;;;15.10;9.27;;;;;;;0.71;90.30;97600.22;10415642;28;20554;-56
2021/12/30 05:56:25;;;;;;;18.88;10.05;;;;;;;0.52;90.50;97607.22;10417269;28;20047;-56
2021/12/30 06:01:24;;;;;;;49.97;27.42;;;;;;;0.55;90.54;97622.69;10413120;28;20028;-56
2021/12/30 06:06:24;;;;;;;61.65;29.17;;;;;;;0.55;90.38;97626.94;10413764;28;20454;-57
2021/12/30 06:11:23;;;;;;;153.63;89.80;;;;;;;0.46;91.15;97640.22;10419472;28;20075;-56
2021/12/30 06:16:22;;;;;;;41.15;22.17;;;;;;;0.50;90.76;97636.97;10421654;28;20068;-56
2021/12/30 06:21:21;;;;;;;32.20;20.00;;;;;;;0.62;90.72;97655.28;10421518;28;20032;-56
2021/12/30 06:26:20;;;;;;;18.00;11.80;;;;;;;0.58;90.70;97668.75;10422342;28;20107;-56
2021/12/30 06:31:19;;;;;;;14.07;9.02;;;;;;;0.57;90.63;97684.00;10421893;28;20048;-56
2021/12/30 06:36:21;;;;;;;13.75;9.10;;;;;;;0.56;90.60;97684.81;10420652;28;20056;-58
2021/12/30 06:41:20;;;;;;;15.13;8.57;;;;;;;0.61;90.65;97703.72;10419566;28;20060;-56
2021/12/30 06:46:21;;;;;;;11.52;7.30;;;;;;;0.66;90.54;97702.22;10420165;28;20063;-56
2021/12/30 06:51:23;;;;;;;12.13;7.85;;;;;;;0.79;90.51;97717.19;10419296;28;20072;-57
2021/12/30 06:56:23;;;;;;;11.57;7.55;;;;;;;0.82;90.42;97719.84;10420668;28;20063;-56
2021/12/30 07:01:22;;;;;;;9.95;6.88;;;;;;;0.92;90.46;97731.28;10418323;28;20068;-57
2021/12/30 07:06:21;;;;;;;8.80;5.78;;;;;;;0.88;90.27;97743.06;10419987;28;20039;-57
2021/12/30 07:11:20;;;;;;;12.07;7.30;;;;;;;0.87;90.73;97758.34;10377998;28;20037;-56
2021/12/30 07:16:19;;;;;;;15.02;9.85;;;;;;;0.87;90.68;97769.44;10377868;28;20538;-57
2021/12/30 07:21:18;;;;;;;12.63;8.27;;;;;;;1.00;90.58;97775.84;10376498;28;20040;-56
2021/12/30 07:26:17;;;;;;;15.65;9.50;;;;;;;0.93;90.17;97773.91;10374114;28;20041;-56
2021/12/30 07:31:16;;;;;;;16.15;10.38;;;;;;;1.01;90.10;97798.03;10372222;28;20120;-57
2021/12/30 07:36:15;;;;;;;12.75;9.38;;;;;;;1.02;89.64;97806.59;10373827;28;20120;-57
2021/12/30 07:41:14;;;;;;;14.75;9.45;;;;;;;0.92;90.42;97819.81;10374132;28;20041;-57
2021/12/30 07:46:14;;;;;;;18.75;13.35;;;;;;;0.88;90.49;97836.72;10339618;28;20072;-56
2021/12/30 07:51:13;;;;;;;12.63;9.18;;;;;;;1.00;90.14;97839.75;10350084;28;20103;-57
2021/12/30 07:56:12;;;;;;;13.60;9.05;;;;;;;1.14;89.88;97845.38;10370195;28;20106;-56
2021/12/30 08:01:13;;;;;;;14.75;8.88;;;;;;;1.21;89.60;97851.59;10364242;28;20036;-57
2021/12/30 08:06:12;;;;;;;20.70;13.57;;;;;;;1.28;89.75;97862.09;10367494;28;20127;-56
2021/12/30 08:11:11;;;;;;;23.90;16.23;;;;;;;1.39;89.70;97866.72;10360099;28;20407;-57
2021/12/30 08:16:10;;;;;;;15.63;11.50;;;;;;;1.35;89.69;97868.31;10358170;28;20026;-57
2021/12/30 08:21:09;;;;;;;12.98;8.77;;;;;;;1.28;89.95;97885.09;10370379;28;20045;-57
2021/12/30 08:26:09;;;;;;;14.68;10.65;;;;;;;1.43;90.00;97876.25;10372255;28;20776;-57
2021/12/30 08:31:07;;;;;;;14.82;11.98;;;;;;;1.48;89.50;97890.06;10372362;28;20160;-56
2021/12/30 08:36:07;;;;;;;11.13;7.43;;;;;;;1.38;89.40;97901.66;10369953;28;20036;-57
2021/12/30 08:41:06;;;;;;;16.25;11.07;;;;;;;1.31;89.55;97910.75;10370071;28;20143;-57
2021/12/30 08:46:05;;;;;;;15.13;10.10;;;;;;;1.45;89.68;97920.66;10371036;28;20059;-57
2021/12/30 08:51:05;;;;;;;11.90;7.93;;;;;;;1.53;89.36;97932.91;10372995;28;20103;-56
2021/12/30 08:56:04;;;;;;;11.48;7.03;;;;;;;1.45;88.87;97941.09;10372307;28;20084;-56
2021/12/30 09:01:05;;;;;;;;;;;;;;;1.43;88.66;97937.63;10372930;28;20083;-56
2021/12/30 09:06:05;;;;;;;8.73;6.50;;;;;;;1.19;88.68;97935.88;10371279;28;20385;-57
2021/12/30 09:11:04;;;;;;;11.57;7.82;;;;;;;1.37;88.96;97950.19;10371186;28;20069;-57
2021/12/30 09:16:04;;;;;;;11.48;7.72;;;;;;;1.52;89.41;97955.88;10370511;28;20068;-57
2021/12/30 09:21:02;;;;;;;;;;;;;;;1.63;89.48;97959.69;10371214;28;20068;-56
2021/12/30 09:26:01;;;;;;;12.55;9.07;;;;;;;1.89;89.33;97972.59;10370964;28;19913;-57
2021/12/30 09:31:00;;;;;;;11.40;7.72;;;;;;;2.09;89.08;97986.09;10367616;28;20057;-57
2021/12/30 09:36:02;;;;;;;15.20;8.85;;;;;;;2.03;88.63;97985.88;10368206;28;20127;-57
2021/12/30 09:41:01;;;;;;;14.02;8.48;;;;;;;1.96;88.67;97977.09;10370891;28;20068;-57
2021/12/30 09:46:01;;;;;;;17.52;11.63;;;;;;;2.02;88.57;97979.91;10378444;28;20060;-57
2021/12/30 09:51:00;;;;;;;;;;;;;;;2.28;88.62;97979.97;10380259;28;20063;-57
2021/12/30 09:55:59;;;;;;;21.55;12.85;;;;;;;2.35;88.60;97975.09;10380345;28;19913;-57
2021/12/30 10:01:00;;;;;;;18.58;12.50;;;;;;;2.53;88.20;97986.78;10379948;28;20065;-57
2021/12/30 10:06:07;;;;;;;21.38;14.90;;;;;;;2.43;87.70;97989.84;10379368;28;20080;-56
2021/12/30 10:11:14;;;;;;;177.02;109.60;;;;;;;2.28;87.08;97988.50;10378806;28;20594;-57
2021/12/30 10:16:15;;;;;;;20.33;12.57;;;;;;;2.09;86.72;97968.16;10377404;28;20072;-57
2021/12/30 10:21:37;;;;;;;22.08;13.18;;;;;;;2.27;87.34;97996.13;10378659;28;20060;-57
2021/12/30 10:26:54;;;;;;;19.13;13.40;;;;;;;2.46;86.69;97998.50;10375156;28;20068;-57
2021/12/30 10:31:54;;;;;;;16.88;11.45;;;;;;;2.57;86.98;97989.50;10375519;28;20941;-57
2021/12/30 10:36:53;;;;;;;32.03;26.52;;;;;;;2.62;86.92;97996.47;10378447;28;20103;-57
2021/12/30 10:42:19;;;;;;;21.67;15.80;;;;;;;2.59;86.25;98000.69;10384039;28;20389;-57
2021/12/30 10:47:21;;;;;;;19.17;13.40;;;;;;;2.69;87.04;97991.59;10387288;28;20069;-58
2021/12/30 10:52:20;;;;;;;19.23;13.15;;;;;;;2.71;85.72;97987.41;10380455;28;20056;-58
2021/12/30 10:57:19;;;;;;;20.95;14.98;;;;;;;2.58;85.60;97965.66;10378846;28;20060;-57
2021/12/30 11:02:21;;;;;;;18.60;11.93;;;;;;;2.62;85.88;97986.22;10379744;28;20080;-58
2021/12/30 11:07:23;;;;;;;25.98;16.77;;;;;;;2.61;85.43;97994.75;10379379;28;20475;-57
2021/12/30 11:12:28;;;;;;;28.27;18.52;;;;;;;2.58;85.66;97987.81;10377043;28;20469;-58
2021/12/30 11:17:36;;;;;;;34.33;23.83;;;;;;;2.38;85.48;97989.69;10376162;28;20076;-58
2021/12/30 11:22:38;;;;;;;33.92;23.67;;;;;;;2.56;85.97;98004.84;10370286;28;20065;-58
2021/12/30 11:27:38;;;;;;;30.83;19.20;;;;;;;2.41;85.03;98019.66;10377644;28;20076;-57
2021/12/30 11:32:38;;;;;;;28.08;17.63;;;;;;;2.22;86.05;98023.25;10376240;28;20052;-58
2021/12/30 11:37:37;;;;;;;35.13;21.45;;;;;;;1.94;85.88;98029.94;10375803;28;20067;-58
2021/12/30 11:42:43;;;;;;;32.47;20.60;;;;;;;1.97;86.56;98032.59;10372247;28;20056;-58
2021/12/30 11:47:42;;;;;;;33.72;20.60;;;;;;;2.13;86.24;98040.00;10374819;28;20056;-58
2021/12/30 11:53:08;;;;;;;32.83;20.58;;;;;;;2.16;87.02;98034.13;10370395;28;20065;-58
2021/12/30 12:03:46;;;;;;;23.83;15.40;;;;;;;2.23;86.94;98036.13;10376425;28;20822;-57
2021/12/30 12:08:46;;;;;;;22.55;14.05;;;;;;;2.34;86.91;98037.34;10374929;28;20060;-57
2021/12/30 12:13:48;;;;;;;27.63;17.08;;;;;;;2.56;87.16;98035.59;10376162;28;20132;-57
2021/12/30 12:19:05;;;;;;;31.33;21.33;;;;;;;2.35;86.38;98025.44;10372406;28;20064;-56
2021/12/30 12:24:22;;;;;;;33.42;20.85;;;;;;;2.35;87.03;98057.06;10367852;28;20135;-57
2021/12/30 12:29:44;;;;;;;29.65;19.63;;;;;;;2.26;86.95;98043.91;10361223;28;20484;-57
2021/12/30 12:34:53;;;;;;;25.58;16.30;;;;;;;2.40;87.69;98066.59;10374636;28;20072;-58
2021/12/30 12:40:01;;;;;;;33.85;22.23;;;;;;;2.30;86.63;98078.16;10374829;28;20079;-57
2021/12/30 12:45:25;;;;;;;34.65;20.15;;;;;;;2.14;86.34;98079.31;10374617;28;20073;-57
2021/12/30 12:50:37;;;;;;;39.15;25.02;;;;;;;2.10;86.64;98072.31;10375212;28;20076;-57
2021/12/30 12:55:37;;;;;;;33.97;21.70;;;;;;;2.19;86.84;98064.13;10370907;28;20072;-57
2021/12/30 13:00:36;;;;;;;48.72;31.15;;;;;;;2.31;86.80;98079.94;10374612;28;20083;-57
2021/12/30 13:05:35;;;;;;;57.35;38.15;;;;;;;2.44;87.09;98082.13;10373524;28;20021;-57
2021/12/30 13:10:40;;;;;;;38.10;24.98;;;;;;;2.23;86.29;98060.84;10374570;28;20072;-57
2021/12/30 13:15:40;;;;;;;36.55;24.40;;;;;;;2.15;87.70;98093.84;10374795;28;20106;-57
2021/12/30 13:20:41;;;;;;;41.67;29.33;;;;;;;2.13;87.31;98096.34;10374730;28;20076;-57
2021/12/30 13:25:40;;;;;;;31.60;18.00;;;;;;;1.85;87.74;98098.66;10372466;28;20075;-57
2021/12/30 13:30:39;;;;;;;30.98;18.00;;;;;;;1.61;88.09;98103.69;10371635;28;20060;-57
2021/12/30 13:35:40;;;;;;;40.33;23.75;;;;;;;1.51;88.67;98092.25;10374325;28;20021;-57
2021/12/30 13:40:41;;;;;;;30.98;19.42;;;;;;;1.44;88.62;98108.16;10374145;28;20068;-57
2021/12/30 13:45:48;;;;;;;25.13;16.27;;;;;;;1.27;89.06;98113.44;10372981;28;20073;-57
2021/12/30 13:50:56;;;;;;;25.75;15.35;;;;;;;1.24;89.43;98118.41;10374441;28;20072;-57
2021/12/30 13:56:16;;;;;;;25.52;16.00;;;;;;;1.19;89.93;98119.03;10372649;28;20094;-57
2021/12/30 14:01:21;;;;;;;25.90;15.75;;;;;;;1.22;90.22;98124.28;10369716;28;20480;-57
2021/12/30 14:06:25;;;;;;;19.80;11.60;;;;;;;1.25;90.48;98129.53;10371597;28;20100;-57
2021/12/30 14:11:51;;;;;;;19.30;11.77;;;;;;;1.25;90.33;98135.50;10370934;28;20056;-57
2021/12/30 14:16:55;;;;;;;19.92;12.18;;;;;;;1.19;90.28;98122.47;10369575;28;20453;-57
2021/12/30 14:21:54;;;;;;;14.77;9.20;;;;;;;1.25;90.17;98122.72;10371127;28;20554;-57
2021/12/30 14:27:11;;;;;;;18.27;12.40;;;;;;;1.28;90.12;98116.88;10372596;28;20515;-57
2021/12/30 14:32:12;;;;;;;29.15;19.48;;;;;;;1.47;89.66;98126.16;10373718;28;20171;-57
2021/12/30 14:37:22;;;;;;;30.73;21.45;;;;;;;1.56;89.70;98136.78;10375276;28;20100;-57
2021/12/30 14:42:30;;;;;;;21.73;13.80;;;;;;;1.65;89.66;98137.13;10378128;28;20151;-57
2021/12/30 14:47:34;;;;;;;49.80;36.08;;;;;;;1.62;89.93;98126.78;10375315;28;20060;-57
2021/12/30 14:52:32;;;;;;;43.80;31.73;;;;;;;1.64;89.89;98145.59;10370291;28;20044;-57
2021/12/30 14:57:31;;;;;;;26.70;17.55;;;;;;;1.54;89.64;98148.63;10376513;28;20131;-57
2021/12/30 15:02:31;;;;;;;40.17;25.65;;;;;;;1.17;89.64;98093.41;10364644;28;20025;-57
2021/12/30 15:07:30;;;;;;;84.40;51.47;;;;;;;1.31;90.49;98163.88;10377782;28;20060;-57
2021/12/30 15:12:31;;;;;;;44.75;27.30;;;;;;;1.28;90.57;98185.91;10378347;28;20433;-58
2021/12/30 15:17:31;;;;;;;31.48;19.25;;;;;;;1.28;90.43;98188.47;10376926;28;20059;-56
2021/12/30 15:22:30;;;;;;;36.40;24.30;;;;;;;1.15;90.77;98197.25;10377522;28;20523;-56
2021/12/30 15:27:31;;;;;;;27.70;17.88;;;;;;;1.01;91.29;98183.03;10376957;28;20498;-57
2021/12/30 15:32:29;;;;;;;32.47;22.23;;;;;;;1.24;90.53;98218.13;10372648;28;20052;-56
2021/12/30 15:37:28;;;;;;;32.65;20.60;;;;;;;1.33;90.24;98209.97;10375870;28;20044;-58
2021/12/30 15:42:27;;;;;;;27.95;19.75;;;;;;;1.45;90.49;98218.16;10375426;28;20057;-57
2021/12/30 15:47:26;;;;;;;25.83;17.20;;;;;;;1.52;89.86;98194.59;10375754;28;20021;-57
2021/12/30 15:52:25;;;;;;;26.58;17.55;;;;;;;1.81;89.94;98206.81;10375573;28;20095;-57
2021/12/30 15:57:25;;;;;;;39.30;25.92;;;;;;;1.84;89.73;98194.16;10373196;28;20012;-57
2021/12/30 16:02:23;;;;;;;;;;;;;;;2.05;89.74;98212.94;10373084;28;20052;-57
2021/12/30 16:07:22;;;;;;;35.03;21.98;;;;;;;2.05;89.68;98217.19;10375909;28;19999;-57
2021/12/30 16:12:23;;;;;;;77.53;48.70;;;;;;;1.64;89.63;98189.09;10375293;28;20010;-57
2021/12/30 16:17:22;;;;;;;54.47;30.48;;;;;;;1.33;90.41;98249.19;10372951;28;20477;-57
2021/12/30 16:22:22;;;;;;;79.45;47.78;;;;;;;1.28;90.70;98255.78;10375087;28;20059;-57
2021/12/30 16:27:21;;;;;;;;;;;;;;;1.28;90.84;98258.34;10375560;28;20056;-57
2021/12/30 16:32:20;;;;;;;146.20;92.20;;;;;;;1.30;90.60;98264.41;10374193;28;20047;-57
2021/12/30 16:37:19;;;;;;;;;;;;;;;1.47;90.27;98267.69;10375039;28;20498;-57
2021/12/30 16:42:18;;;;;;;52.30;31.30;;;;;;;1.63;90.06;98264.09;10374602;28;20408;-57
2021/12/30 16:47:19;;;;;;;25.55;16.10;;;;;;;1.79;90.14;98263.06;10374439;28;20461;-57
2021/12/30 16:52:18;;;;;;;65.03;38.78;;;;;;;1.91;89.47;98272.94;10372546;28;20167;-57
2021/12/30 16:57:17;;;;;;;58.47;37.95;;;;;;;2.02;89.76;98269.13;10372737;28;20064;-58
2021/12/30 17:02:16;;;;;;;57.17;33.92;;;;;;;2.10;89.23;98270.31;10374563;28;20033;-58
2021/12/30 17:07:15;;;;;;;53.80;33.35;;;;;;;2.11;89.31;98260.94;10374108;28;20031;-58
2021/12/30 17:12:15;;;;;;;50.65;32.60;;;;;;;2.26;89.49;98281.19;10373182;28;20067;-58
2021/12/30 17:17:14;;;;;;;40.95;27.15;;;;;;;2.28;89.34;98279.56;10373390;28;20073;-57
2021/12/30 17:22:13;;;;;;;72.55;40.65;;;;;;;2.32;88.77;98282.28;10373498;28;20196;-58
2021/12/30 17:27:14;;;;;;;80.57;54.88;;;;;;;2.17;89.07;98292.78;10372605;28;20080;-58
2021/12/30 17:32:14;;;;;;;69.18;46.30;;;;;;;2.01;89.04;98298.09;10374236;28;20086;-57
2021/12/30 17:37:13;;;;;;;78.30;49.00;;;;;;;1.83;89.62;98310.13;10332520;28;20088;-58
2021/12/30 17:42:12;;;;;;;82.38;51.35;;;;;;;1.84;89.55;98328.09;10332566;28;20072;-58
2021/12/30 17:47:11;;;;;;;63.13;39.55;;;;;;;1.81;89.54;98342.44;10333221;28;20017;-58
2021/12/30 17:52:10;;;;;;;71.75;39.20;;;;;;;1.85;89.18;98354.56;10332202;28;20037;-58
2021/12/30 17:57:09;;;;;;;84.63;51.20;;;;;;;1.92;89.50;98346.34;10366857;28;20117;-58
2021/12/30 18:02:08;;;;;;;76.93;49.92;;;;;;;1.99;89.30;98342.34;10373052;28;20068;-58
2021/12/30 18:07:07;;;;;;;60.15;36.38;;;;;;;2.12;89.29;98355.72;10376980;28;20476;-58
2021/12/30 18:12:07;;;;;;;52.00;32.75;;;;;;;2.24;89.11;98360.50;10369259;28;20589;-58
2021/12/30 18:17:06;;;;;;;56.50;32.33;;;;;;;2.31;88.02;98369.31;10366045;28;20512;-58
2021/12/30 18:22:05;;;;;;;53.10;29.95;;;;;;;2.30;88.19;98372.66;10361605;28;20556;-58
2021/12/30 18:27:04;;;;;;;58.80;31.75;;;;;;;2.36;88.31;98375.50;10363538;28;20064;-58
2021/12/30 18:32:05;;;;;;;;;;;;;;;2.40;88.04;98367.13;10363512;28;20080;-58
2021/12/30 18:37:03;;;;;;;65.70;37.72;;;;;;;2.42;88.10;98375.75;10363595;28;19964;-58
2021/12/30 18:42:04;;;;;;;71.97;40.80;;;;;;;2.44;88.31;98380.91;10362472;28;20117;-57
2021/12/30 18:47:03;;;;;;;73.90;42.38;;;;;;;2.42;87.87;98369.72;10359300;28;20045;-58
2021/12/30 18:52:03;;;;;;;76.05;41.85;;;;;;;2.48;87.61;98370.00;10361306;28;20071;-58
2021/12/30 18:57:02;;;;;;;66.18;38.28;;;;;;;2.56;87.61;98379.75;10359129;28;20067;-58
2021/12/30 19:02:02;;;;;;;60.78;35.15;;;;;;;2.56;87.71;98389.13;10355853;28;20056;-58
2021/12/30 19:07:01;;;;;;;85.10;48.97;;;;;;;2.56;87.80;98394.25;10354990;28;20476;-58
2021/12/30 19:12:09;;;;;;;80.70;47.35;;;;;;;2.49;87.67;98402.47;10356976;28;20713;-58
2021/12/30 19:17:08;;;;;;;64.95;42.60;;;;;;;2.34;87.46;98407.84;10356390;28;20501;-58
2021/12/30 19:22:07;;;;;;;;;;;;;;;2.18;87.85;98419.13;10354738;28;20764;-58
2021/12/30 19:27:07;;;;;;;71.95;50.10;;;;;;;1.98;88.80;98417.41;10356083;28;20711;-58
2021/12/30 19:32:06;;;;;;;59.10;42.88;;;;;;;2.02;88.97;98425.28;10357329;28;20076;-58
2021/12/30 19:37:05;;;;;;;44.88;31.02;;;;;;;2.11;88.70;98432.47;10356388;28;20060;-58
2021/12/30 19:42:04;;;;;;;52.92;36.28;;;;;;;2.16;88.74;98439.56;10353548;28;20041;-58
2021/12/30 19:47:03;;;;;;;35.35;23.65;;;;;;;2.22;88.86;98438.06;10358267;28;20057;-58
2021/12/30 19:52:03;;;;;;;33.25;22.33;;;;;;;2.28;88.78;98438.34;10353484;28;20037;-58
2021/12/30 19:57:03;;;;;;;38.58;23.80;;;;;;;2.23;88.46;98414.19;10355809;28;20504;-58
2021/12/30 20:02:02;;;;;;;35.85;22.60;;;;;;;2.37;88.80;98423.31;10362861;28;20072;-58
2021/12/30 20:07:01;;;;;;;35.20;22.25;;;;;;;2.33;88.41;98418.91;10353116;28;20072;-57
2021/12/30 20:12:01;;;;;;;35.28;21.17;;;;;;;2.35;88.42;98430.09;10357639;28;20064;-57
2021/12/30 20:16:59;;;;;;;33.35;22.05;;;;;;;2.38;88.75;98435.34;10353643;28;20064;-58
2021/12/30 20:21:58;;;;;;;37.80;24.00;;;;;;;2.42;88.32;98449.13;10355997;28;20026;-58
2021/12/30 20:26:59;;;;;;;49.67;33.30;;;;;;;2.31;88.15;98426.50;10356207;28;20033;-58
2021/12/30 20:31:59;;;;;;;57.97;36.65;;;;;;;2.38;88.40;98443.03;10348472;28;20080;-58
2021/12/30 20:36:58;;;;;;;49.88;32.03;;;;;;;2.36;88.08;98439.50;10353238;28;20057;-58
2021/12/30 20:41:58;;;;;;;59.70;36.42;;;;;;;2.29;88.24;98425.56;10351432;28;20126;-58
2021/12/30 20:46:58;;;;;;;56.10;37.00;;;;;;;2.24;88.01;98405.72;10351103;28;20152;-58
2021/12/30 20:51:57;;;;;;;64.32;41.28;;;;;;;2.40;88.27;98417.47;10353152;28;20068;-58
2021/12/30 20:56:56;;;;;;;82.45;47.20;;;;;;;2.43;88.12;98403.09;10351976;28;20057;-58
2021/12/30 21:01:55;;;;;;;86.88;52.53;;;;;;;2.42;87.97;98411.59;10353671;28;20035;-58
2021/12/30 21:06:56;;;;;;;101.10;58.53;;;;;;;2.28;88.10;98382.84;10352333;28;20069;-58
2021/12/30 21:11:56;;;;;;;50.22;32.55;;;;;;;2.30;87.60;98406.84;10351936;28;20060;-58
2021/12/30 21:16:55;;;;;;;31.70;21.52;;;;;;;2.08;88.32;98409.31;10351440;28;20060;-58
2021/12/30 21:21:55;;;;;;;53.13;35.53;;;;;;;1.90;88.46;98414.50;10351068;28;20056;-58
2021/12/30 21:26:54;;;;;;;64.30;44.90;;;;;;;1.81;88.80;98409.88;10347059;28;20116;-58
2021/12/30 21:31:53;;;;;;;67.75;44.33;;;;;;;1.69;89.64;98427.22;10350012;28;20069;-58
2021/12/30 21:36:52;;;;;;;41.60;28.80;;;;;;;1.55;89.89;98429.16;10352093;28;20040;-58
2021/12/30 21:41:52;;;;;;;56.55;37.60;;;;;;;1.16;90.40;98393.31;10350360;28;20426;-58
2021/12/30 21:46:51;;;;;;;64.85;43.33;;;;;;;1.51;89.97;98414.50;10356180;28;20807;-58
2021/12/30 21:51:50;;;;;;;73.80;44.17;;;;;;;1.82;89.71;98424.41;10352455;28;20487;-57
2021/12/30 21:56:50;;;;;;;53.78;34.03;;;;;;;2.00;89.88;98426.91;10349323;28;20021;-58
2021/12/30 22:01:49;;;;;;;42.60;27.33;;;;;;;2.03;89.30;98410.78;10351765;28;20115;-58
2021/12/30 22:06:48;;;;;;;;;;;;;;;2.29;89.19;98420.44;10350891;28;20116;-58
2021/12/30 22:11:47;;;;;;;31.23;19.60;;;;;;;2.38;88.93;98425.09;10352358;28;19999;-58
2021/12/30 22:16:46;;;;;;;37.08;20.52;;;;;;;2.42;88.61;98415.84;10349335;28;20025;-58
2021/12/30 22:21:45;;;;;;;;;;;;;;;2.51;88.19;98406.88;10352966;28;20495;-58
2021/12/30 22:26:44;;;;;;;42.25;26.20;;;;;;;2.45;88.32;98416.84;10351590;28;20396;-58
2021/12/30 22:31:43;;;;;;;54.05;33.92;;;;;;;2.36;88.39;98442.06;10353831;28;20049;-58
2021/12/30 22:36:42;;;;;;;41.38;22.77;;;;;;;2.18;88.64;98442.16;10350320;28;20069;-58
2021/12/30 22:41:41;;;;;;;50.15;26.08;;;;;;;2.11;88.52;98435.94;10350476;28;20044;-58
2021/12/30 22:46:40;;;;;;;40.33;22.83;;;;;;;2.17;88.70;98438.72;10357771;28;20132;-58
2021/12/30 22:51:39;;;;;;;37.47;22.45;;;;;;;2.13;88.52;98416.34;10374140;28;20028;-58
2021/12/30 22:56:38;;;;;;;38.50;21.95;;;;;;;2.35;87.93;98438.66;10363140;28;20093;-58
2021/12/30 23:01:37;;;;;;;44.70;26.67;;;;;;;2.33;87.44;98419.78;10358245;28;20129;-58
2021/12/30 23:06:38;;;;;;;48.38;28.08;;;;;;;2.50;87.25;98425.59;10364016;28;20064;-58
2021/12/30 23:11:37;;;;;;;57.33;33.42;;;;;;;2.56;87.16;98420.75;10356463;28;20060;-58
2021/12/30 23:16:36;;;;;;;90.90;49.17;;;;;;;2.54;87.05;98421.50;10358294;28;20140;-58